createdAt,value
2023-01-10T00:00:45.783Z,99030.59
2023-01-10T00:03:12.735Z,99020.91
2023-01-10T00:05:40.336Z,99021.91
2023-01-10T00:08:08.779Z,99016.56
2023-01-10T00:10:35.650Z,99023.56
2023-01-10T00:13:20.708Z,99018.41
2023-01-10T00:15:47.532Z,99017.53
2023-01-10T00:18:14.160Z,99018.22
2023-01-10T00:20:40.714Z,99015.56
2023-01-10T00:23:07.295Z,99013.75
2023-01-10T00:25:35.966Z,99013.63
2023-01-10T00:28:19.730Z,99003.75
2023-01-10T00:30:55.049Z,99002.91
2023-01-10T00:33:22.292Z,99001.94
2023-01-10T00:35:49.040Z,99002.63
2023-01-10T00:38:16.071Z,98998.41
2023-01-10T00:40:42.685Z,99000.25
2023-01-10T00:43:28.972Z,99002.06
2023-01-10T00:45:57.489Z,98994.19
2023-01-10T00:48:24.263Z,98999.84
2023-01-10T00:50:51.119Z,99002.50
2023-01-10T00:53:17.655Z,98996.31
2023-01-10T00:55:44.643Z,99006.00
2023-01-10T00:58:11.947Z,99011.34
2023-01-10T01:00:38.994Z,99009.81
2023-01-10T01:03:07.133Z,99007.97
2023-01-10T01:05:34.258Z,99001.78
2023-01-10T01:08:00.805Z,99001.94
2023-01-10T01:10:27.380Z,98999.28
2023-01-10T01:13:06.064Z,98996.59
2023-01-10T01:15:35.200Z,98990.53
2023-01-10T01:18:02.592Z,98993.94
2023-01-10T01:20:29.675Z,98988.59
2023-01-10T01:22:56.514Z,99000.81
2023-01-10T01:25:23.104Z,98994.63
2023-01-10T01:27:50.071Z,99003.63
2023-01-10T01:30:16.818Z,98999.13
2023-01-10T01:32:43.694Z,98996.44
2023-01-10T01:35:13.973Z,98998.97
2023-01-10T01:37:41.927Z,98989.97
2023-01-10T01:40:14.728Z,98994.50
2023-01-10T01:42:42.397Z,98995.47
2023-01-10T01:45:08.907Z,98996.31
2023-01-10T01:47:46.909Z,98995.63
2023-01-10T01:50:24.720Z,99002.63
2023-01-10T01:52:55.131Z,98999.28
2023-01-10T01:55:22.677Z,99002.91
2023-01-10T01:57:52.001Z,99004.63
2023-01-10T02:00:18.932Z,99002.09
2023-01-10T02:03:02.580Z,99014.44
2023-01-10T02:05:32.463Z,99016.28
2023-01-10T02:08:02.301Z,99018.13
2023-01-10T02:10:34.749Z,99026.13
2023-01-10T02:13:05.861Z,99019.81
2023-01-10T02:15:32.489Z,99024.28
2023-01-10T02:18:01.592Z,99021.78
2023-01-10T02:20:29.886Z,99028.94
2023-01-10T02:22:56.434Z,99022.78
2023-01-10T02:25:44.255Z,99016.44
2023-01-10T02:28:23.042Z,99007.56
2023-01-10T02:31:01.704Z,99017.44
2023-01-10T02:33:34.841Z,99012.22
2023-01-10T02:36:07.688Z,99001.81
2023-01-10T02:38:39.886Z,99008.00
2023-01-10T02:41:20.613Z,99008.00
2023-01-10T02:43:53.319Z,99014.34
2023-01-10T02:46:25.563Z,99008.00
2023-01-10T02:48:54.179Z,99002.78
2023-01-10T02:51:29.951Z,99011.91
2023-01-10T02:54:12.096Z,99011.06
2023-01-10T02:56:57.002Z,99012.19
2023-01-10T02:59:38.837Z,99013.03
2023-01-10T03:02:25.591Z,99015.00
2023-01-10T03:05:11.116Z,99019.50
2023-01-10T03:07:43.319Z,99029.34
2023-01-10T03:10:48.317Z,99032.84
2023-01-10T03:13:31.186Z,99041.84
2023-01-10T03:16:00.470Z,99039.88
2023-01-10T03:19:05.769Z,99030.19
2023-01-10T03:21:34.197Z,99032.16
2023-01-10T03:24:05.948Z,99038.50
2023-01-10T03:26:53.460Z,99039.75
2023-01-10T03:29:28.901Z,99045.34
2023-01-10T03:32:01.406Z,99048.19
2023-01-10T03:34:28.419Z,99043.97
2023-01-10T03:37:23.826Z,99049.56
2023-01-10T03:40:05.253Z,99041.56
2023-01-10T03:43:09.298Z,99055.91
2023-01-10T03:45:49.627Z,99047.19
2023-01-10T03:48:18.475Z,99051.56
2023-01-10T03:50:46.063Z,99047.88
2023-01-10T03:53:13.230Z,99053.53
2023-01-10T03:55:41.659Z,99050.84
2023-01-10T03:58:08.210Z,99060.69
2023-01-10T04:00:34.842Z,99062.50
2023-01-10T04:03:01.422Z,99068.56
2023-01-10T04:05:27.999Z,99073.19
2023-01-10T04:07:54.547Z,99075.03
2023-01-10T04:10:21.187Z,99080.22
2023-01-10T04:12:47.724Z,99072.91
2023-01-10T04:15:14.347Z,99058.56
2023-01-10T04:17:40.907Z,99049.56
2023-01-10T04:20:08.133Z,99050.44
2023-01-10T04:22:34.700Z,99046.91
2023-01-10T04:25:01.262Z,99046.06
2023-01-10T04:27:27.810Z,99050.56
2023-01-10T04:29:54.400Z,99060.38
2023-01-10T04:32:20.976Z,99057.72
2023-01-10T04:34:47.523Z,99051.69
2023-01-10T04:37:14.097Z,99053.38
2023-01-10T04:39:40.679Z,99055.22
2023-01-10T04:42:07.380Z,99063.06
2023-01-10T04:44:34.158Z,99062.09
2023-01-10T04:47:00.773Z,99075.28
2023-01-10T04:49:27.400Z,99084.16
2023-01-10T04:51:54.043Z,99082.34
2023-01-10T04:54:21.831Z,99088.38
2023-01-10T04:56:48.609Z,99092.72
2023-01-10T04:59:15.778Z,99096.25
2023-01-10T05:01:42.561Z,99097.81
2023-01-10T05:04:09.705Z,99116.34
2023-01-10T05:06:37.298Z,99115.38
2023-01-10T05:09:04.946Z,99117.06
2023-01-10T05:11:31.513Z,99116.22
2023-01-10T05:13:58.058Z,99118.06
2023-01-10T05:16:25.528Z,99121.84
2023-01-10T05:18:52.228Z,99136.16
2023-01-10T05:21:19.029Z,99139.69
2023-01-10T05:23:45.743Z,99142.34
2023-01-10T05:26:22.890Z,99138.81
2023-01-10T05:28:49.877Z,99141.78
2023-01-10T05:31:19.747Z,99142.78
2023-01-10T05:33:50.872Z,99139.38
2023-01-10T05:36:19.228Z,99136.00
2023-01-10T05:38:46.268Z,99136.16
2023-01-10T05:41:12.875Z,99132.78
2023-01-10T05:43:39.770Z,99135.56
2023-01-10T05:46:06.418Z,99135.56
2023-01-10T05:48:33.014Z,99141.03
2023-01-10T05:50:59.641Z,99144.56
2023-01-10T05:53:26.477Z,99145.00
2023-01-10T05:55:58.052Z,99148.50
2023-01-10T05:58:25.373Z,99152.16
2023-01-10T06:00:52.180Z,99162.13
2023-01-10T06:03:19.199Z,99165.63
2023-01-10T06:05:48.483Z,99169.28
2023-01-10T06:08:15.452Z,99172.38
2023-01-10T06:10:43.080Z,99178.69
2023-01-10T06:13:09.920Z,99177.13
2023-01-10T06:15:36.682Z,99185.53
2023-01-10T06:18:03.604Z,99192.84
2023-01-10T06:20:30.273Z,99191.41
2023-01-10T06:22:56.872Z,99197.59
2023-01-10T06:25:23.460Z,99199.56
2023-01-10T06:27:50.000Z,99206.59
2023-01-10T06:30:16.753Z,99214.00
2023-01-10T06:32:43.369Z,99224.94
2023-01-10T06:35:10.461Z,99225.22
2023-01-10T06:37:37.281Z,99226.34
2023-01-10T06:40:05.326Z,99227.03
2023-01-10T06:42:32.007Z,99215.78
2023-01-10T06:44:58.541Z,99217.75
2023-01-10T06:47:25.237Z,99221.38
2023-01-10T06:49:52.388Z,99211.84
2023-01-10T06:52:19.028Z,99215.44
2023-01-10T06:54:45.628Z,99218.28
2023-01-10T06:57:12.190Z,99228.94
2023-01-10T06:59:38.857Z,99250.41
2023-01-10T07:02:05.499Z,99243.25
2023-01-10T07:04:32.253Z,99254.19
2023-01-10T07:06:58.820Z,99266.81
2023-01-10T07:09:25.469Z,99269.50
2023-01-10T07:11:52.043Z,99275.66
2023-01-10T07:14:18.850Z,99287.03
2023-01-10T07:16:45.423Z,99285.22
2023-01-10T07:19:13.654Z,99294.91
2023-01-10T07:21:41.697Z,99300.25
2023-01-10T07:24:09.037Z,99301.94
2023-01-10T07:26:36.071Z,99296.59
2023-01-10T07:29:02.796Z,99314.44
2023-01-10T07:31:29.597Z,99306.31
2023-01-10T07:33:56.195Z,99317.00
2023-01-10T07:36:22.881Z,99308.00
2023-01-10T07:38:49.512Z,99317.72
2023-01-10T07:41:16.110Z,99325.59
2023-01-10T07:43:42.679Z,99340.50
2023-01-10T07:46:12.190Z,99347.75
2023-01-10T07:48:41.880Z,99348.75
2023-01-10T07:51:09.157Z,99348.75
2023-01-10T07:53:35.739Z,99358.72
2023-01-10T07:56:04.272Z,99361.38
2023-01-10T07:58:31.250Z,99368.53
2023-01-10T08:01:02.561Z,99376.41
2023-01-10T08:03:30.288Z,99384.28
2023-01-10T08:06:05.604Z,99390.63
2023-01-10T08:08:34.000Z,99398.47
2023-01-10T08:11:02.551Z,99402.00
2023-01-10T08:13:30.217Z,99409.13
2023-01-10T08:15:57.102Z,99407.72
2023-01-10T08:18:26.383Z,99420.19
2023-01-10T08:20:54.096Z,99427.34
2023-01-10T08:23:21.266Z,99427.63
2023-01-10T08:25:48.276Z,99433.94
2023-01-10T08:28:15.076Z,99450.06
2023-01-10T08:30:41.688Z,99458.19
2023-01-10T08:33:09.647Z,99458.28
2023-01-10T08:35:41.419Z,99460.00
2023-01-10T08:38:09.291Z,99466.06
2023-01-10T08:40:35.996Z,99468.84
2023-01-10T08:43:05.316Z,99472.38
2023-01-10T08:45:32.911Z,99476.84
2023-01-10T08:48:00.768Z,99485.84
2023-01-10T08:50:27.539Z,99479.03
2023-01-10T08:52:54.185Z,99484.38
2023-01-10T08:55:20.929Z,99489.72
2023-01-10T08:57:47.689Z,99496.63
2023-01-10T09:00:14.750Z,99508.88
2023-01-10T09:02:41.707Z,99513.97
2023-01-10T09:05:18.656Z,99521.00
2023-01-10T09:07:52.995Z,99534.44
2023-01-10T09:10:19.677Z,99537.25
2023-01-10T09:12:54.786Z,99533.75
2023-01-10T09:15:23.245Z,99541.00
2023-01-10T09:17:52.730Z,99552.91
2023-01-10T09:20:19.334Z,99553.75
2023-01-10T09:22:45.916Z,99558.25
2023-01-10T09:25:12.526Z,99565.38
2023-01-10T09:27:39.102Z,99563.81
2023-01-10T09:30:06.114Z,99574.84
2023-01-10T09:32:32.707Z,99574.97
2023-01-10T09:34:59.219Z,99589.41
2023-01-10T09:37:25.785Z,99593.03
2023-01-10T09:39:52.927Z,99607.34
2023-01-10T09:42:49.766Z,99611.94
2023-01-10T09:45:38.620Z,99608.81
2023-01-10T09:48:09.216Z,99622.13
2023-01-10T09:51:00.583Z,99622.13
2023-01-10T09:53:31.194Z,99628.41
2023-01-10T09:56:00.156Z,99622.34
2023-01-10T09:58:32.255Z,99620.78
2023-01-10T10:01:03.752Z,99639.56
2023-01-10T10:03:36.454Z,99639.81
2023-01-10T10:06:12.001Z,99638.22
2023-01-10T10:08:44.311Z,99633.00
2023-01-10T10:11:26.082Z,99650.09
2023-01-10T10:14:26.182Z,99648.28
2023-01-10T10:17:11.184Z,99649.13
2023-01-10T10:19:52.650Z,99651.91
2023-01-10T10:22:28.206Z,99648.28
2023-01-10T10:25:27.178Z,99653.72
2023-01-10T10:28:20.641Z,99651.91
2023-01-10T10:31:15.211Z,99641.97
2023-01-10T10:34:12.665Z,99674.84
2023-01-10T10:36:57.405Z,99679.06
2023-01-10T10:39:31.132Z,99682.59
2023-01-10T10:41:58.287Z,99689.59
2023-01-10T10:44:39.224Z,99687.06
2023-01-10T10:47:15.093Z,99692.28
2023-01-10T10:50:07.070Z,99694.09
2023-01-10T10:52:36.575Z,99697.72
2023-01-10T10:55:06.045Z,99706.81
2023-01-10T10:57:38.742Z,99700.63
2023-01-10T11:00:10.006Z,99713.00
2023-01-10T11:02:43.666Z,99713.00
2023-01-10T11:05:20.273Z,99712.03
2023-01-10T11:07:47.137Z,99725.34
2023-01-10T11:10:39.250Z,99727.03
2023-01-10T11:13:22.967Z,99729.59
2023-01-10T11:15:50.830Z,99748.16
2023-01-10T11:18:28.499Z,99753.72
2023-01-10T11:20:58.183Z,99757.25
2023-01-10T11:23:49.639Z,99755.44
2023-01-10T11:26:25.357Z,99758.84
2023-01-10T11:28:56.047Z,99770.22
2023-01-10T11:31:29.667Z,99767.44
2023-01-10T11:33:57.404Z,99771.69
2023-01-10T11:36:24.013Z,99782.38
2023-01-10T11:39:04.668Z,99777.91
2023-01-10T11:41:34.604Z,99776.81
2023-01-10T11:44:23.633Z,99783.97
2023-01-10T11:46:54.348Z,99778.50
2023-01-10T11:49:33.034Z,99783.75
2023-01-10T11:52:04.488Z,99789.06
2023-01-10T11:54:32.737Z,99780.94
2023-01-10T11:56:59.318Z,99787.13
2023-01-10T11:59:27.555Z,99788.81
2023-01-10T12:02:02.250Z,99795.75
2023-01-10T12:04:31.475Z,99809.69
2023-01-10T12:07:03.191Z,99801.59
2023-01-10T12:09:35.828Z,99804.97
2023-01-10T12:12:05.853Z,99819.91
2023-01-10T12:14:32.560Z,99818.81
2023-01-10T12:17:01.156Z,99824.16
2023-01-10T12:19:29.388Z,99820.53
2023-01-10T12:22:02.172Z,99820.41
2023-01-10T12:24:34.849Z,99825.66
2023-01-10T12:27:06.316Z,99820.19
2023-01-10T12:29:58.141Z,99833.41
2023-01-10T12:32:30.817Z,99843.75
2023-01-10T12:35:04.556Z,99846.28
2023-01-10T12:37:54.475Z,99850.69
2023-01-10T12:40:44.660Z,99851.88
2023-01-10T12:43:47.776Z,99859.97
2023-01-10T12:46:52.958Z,99869.94
2023-01-10T12:49:27.131Z,99876.97
2023-01-10T12:51:58.453Z,99883.16
2023-01-10T12:54:28.962Z,99883.25
2023-01-10T12:56:58.830Z,99880.59
2023-01-10T12:59:38.248Z,99893.06
2023-01-10T13:02:12.325Z,99878.91
2023-01-10T13:04:41.438Z,99879.22
2023-01-10T13:07:12.571Z,99879.13
2023-01-10T13:09:42.574Z,99881.78
2023-01-10T13:12:21.993Z,99890.66
2023-01-10T13:15:06.927Z,99894.16
2023-01-10T13:17:33.428Z,99893.31
2023-01-10T13:20:17.982Z,99893.31
2023-01-10T13:22:51.316Z,99904.09
2023-01-10T13:25:24.772Z,99912.09
2023-01-10T13:28:17.787Z,99915.59
2023-01-10T13:30:53.629Z,99925.66
2023-01-10T13:33:25.018Z,99933.66
2023-01-10T13:35:54.585Z,99923.22
2023-01-10T13:38:37.335Z,99932.19
2023-01-10T13:41:07.853Z,99937.66
2023-01-10T13:43:34.714Z,99947.25
2023-01-10T13:46:16.735Z,99955.00
2023-01-10T13:48:49.419Z,99963.25
2023-01-10T13:51:21.815Z,99966.75
2023-01-10T13:53:56.318Z,99974.66
2023-01-10T13:56:40.782Z,99969.22
2023-01-10T13:59:32.871Z,99978.06
2023-01-10T14:02:20.248Z,99977.31
2023-01-10T14:04:55.806Z,99984.34
2023-01-10T14:07:35.643Z,99984.25
2023-01-10T14:10:19.095Z,99979.78
2023-01-10T14:12:59.184Z,99995.78
2023-01-10T14:15:34.105Z,100002.72
2023-01-10T14:18:17.380Z,100001.94
2023-01-10T14:20:44.499Z,100009.22
2023-01-10T14:23:21.216Z,100013.50
2023-01-10T14:25:54.779Z,100019.91
2023-01-10T14:28:26.281Z,100026.09
2023-01-10T14:31:12.481Z,100031.44
2023-01-10T14:33:43.669Z,100038.56
2023-01-10T14:36:17.335Z,100037.59
2023-01-10T14:38:46.507Z,100046.34
2023-01-10T14:41:12.993Z,100051.81
2023-01-10T14:44:01.917Z,100057.78
2023-01-10T14:46:46.167Z,100068.66
2023-01-10T14:49:27.806Z,100074.00
2023-01-10T14:52:19.413Z,100075.81
2023-01-10T14:54:47.254Z,100076.78
2023-01-10T14:57:22.543Z,100077.53
2023-01-10T14:59:50.672Z,100074.84
2023-01-10T15:02:26.576Z,100081.16
2023-01-10T15:04:56.766Z,100079.22
2023-01-10T15:07:25.413Z,100090.00
2023-01-10T15:09:56.471Z,100094.50
2023-01-10T15:12:27.777Z,100088.28
2023-01-10T15:15:04.473Z,100089.91
2023-01-10T15:17:32.075Z,100098.78
2023-01-10T15:19:58.926Z,100104.09
2023-01-10T15:22:35.705Z,100112.22
2023-01-10T15:25:08.355Z,100110.28
2023-01-10T15:27:36.943Z,100120.84
2023-01-10T15:30:08.103Z,100121.72
2023-01-10T15:32:40.092Z,100144.88
2023-01-10T15:35:10.966Z,100143.91
2023-01-10T15:37:41.000Z,100150.09
2023-01-10T15:40:20.108Z,100130.44
2023-01-10T15:42:46.682Z,100137.38
2023-01-10T15:45:37.597Z,100151.81
2023-01-10T15:48:04.564Z,100164.19
2023-01-10T15:50:34.049Z,100164.19
2023-01-10T15:53:08.991Z,100168.69
2023-01-10T15:55:56.408Z,100172.81
2023-01-10T15:58:28.680Z,100170.16
2023-01-10T16:00:57.579Z,100163.97
2023-01-10T16:03:36.066Z,100157.44
2023-01-10T16:06:08.831Z,100169.94
2023-01-10T16:08:37.968Z,100179.84
2023-01-10T16:11:07.979Z,100181.34
2023-01-10T16:13:36.660Z,100177.63
2023-01-10T16:16:08.439Z,100188.19
2023-01-10T16:18:35.056Z,100187.31
2023-01-10T16:21:05.557Z,100180.28
2023-01-10T16:23:35.357Z,100182.84
2023-01-10T16:26:06.076Z,100185.53
2023-01-10T16:28:36.210Z,100188.19
2023-01-10T16:31:06.395Z,100191.84
2023-01-10T16:33:33.881Z,100195.13
2023-01-10T16:36:00.869Z,100196.84
2023-01-10T16:38:29.019Z,100203.88
2023-01-10T16:40:58.575Z,100208.16
2023-01-10T16:43:26.958Z,100206.44
2023-01-10T16:46:01.873Z,100218.63
2023-01-10T16:48:30.596Z,100215.72
2023-01-10T16:51:23.573Z,100223.84
2023-01-10T16:53:50.910Z,100225.66
2023-01-10T16:56:26.248Z,100231.00
2023-01-10T16:58:54.611Z,100228.34
2023-01-10T17:01:29.248Z,100236.22
2023-01-10T17:03:56.321Z,100243.50
2023-01-10T17:06:23.257Z,100241.78
2023-01-10T17:08:49.901Z,100241.56
2023-01-10T17:11:20.292Z,100237.19
2023-01-10T17:13:49.583Z,100237.81
2023-01-10T17:16:18.645Z,100248.63
2023-01-10T17:18:47.169Z,100250.44
2023-01-10T17:21:16.494Z,100253.00
2023-01-10T17:23:43.660Z,100253.00
2023-01-10T17:26:12.716Z,100256.63
2023-01-10T17:28:41.114Z,100257.38
2023-01-10T17:31:08.504Z,100257.38
2023-01-10T17:33:35.171Z,100271.69
2023-01-10T17:36:01.723Z,100274.34
2023-01-10T17:38:28.967Z,100289.41
2023-01-10T17:41:01.990Z,100284.94
2023-01-10T17:43:29.940Z,100288.13
2023-01-10T17:45:58.956Z,100295.28
2023-01-10T17:48:25.961Z,100283.88
2023-01-10T17:50:57.991Z,100290.06
2023-01-10T17:53:25.019Z,100281.84
2023-01-10T17:55:51.773Z,100295.06
2023-01-10T17:58:19.333Z,100291.56
2023-01-10T18:00:46.903Z,100299.34
2023-01-10T18:03:13.610Z,100287.81
2023-01-10T18:05:40.263Z,100301.81
2023-01-10T18:08:08.006Z,100309.09
2023-01-10T18:10:34.730Z,100308.22
2023-01-10T18:13:03.335Z,100307.25
2023-01-10T18:15:30.262Z,100313.31
2023-01-10T18:17:57.873Z,100324.25
2023-01-10T18:20:24.620Z,100310.66
2023-01-10T18:23:09.749Z,100316.00
2023-01-10T18:25:36.321Z,100316.88
2023-01-10T18:28:02.923Z,100314.19
2023-01-10T18:30:29.508Z,100323.16
2023-01-10T18:32:56.882Z,100317.72
2023-01-10T18:35:23.602Z,100318.47
2023-01-10T18:37:50.209Z,100331.63
2023-01-10T18:40:17.173Z,100337.91
2023-01-10T18:42:43.757Z,100338.88
2023-01-10T18:45:10.603Z,100330.75
2023-01-10T18:47:37.272Z,100340.69
2023-01-10T18:50:05.242Z,100340.38
2023-01-10T18:52:31.887Z,100344.00
2023-01-10T18:54:59.817Z,100341.34
2023-01-10T18:57:28.552Z,100344.09
2023-01-10T18:59:55.121Z,100346.25
2023-01-10T19:02:21.847Z,100332.03
2023-01-10T19:04:48.453Z,100341.75
2023-01-10T19:07:14.980Z,100348.03
2023-01-10T19:09:41.557Z,100334.59
2023-01-10T19:12:08.564Z,100336.44
2023-01-10T19:14:35.163Z,100339.94
2023-01-10T19:17:01.725Z,100343.47
2023-01-10T19:19:28.279Z,100333.53
2023-01-10T19:21:54.857Z,100351.25
2023-01-10T19:24:32.684Z,100338.88
2023-01-10T19:26:59.299Z,100336.84
2023-01-10T19:29:25.909Z,100345.72
2023-01-10T19:31:53.754Z,100350.19
2023-01-10T19:34:20.417Z,100346.69
2023-01-10T19:36:46.992Z,100359.72
2023-01-10T19:39:14.538Z,100362.47
2023-01-10T19:41:41.780Z,100367.06
2023-01-10T19:44:12.914Z,100371.34
2023-01-10T19:46:40.710Z,100361.50
2023-01-10T19:49:08.386Z,100372.19
2023-01-10T19:51:39.797Z,100375.72
2023-01-10T19:54:08.242Z,100372.19
2023-01-10T19:56:35.447Z,100380.88
2023-01-10T19:59:02.315Z,100374.56
2023-01-10T20:01:30.924Z,100385.44
2023-01-10T20:04:03.664Z,100380.00
2023-01-10T20:06:32.767Z,100384.28
2023-01-10T20:08:59.529Z,100389.72
2023-01-10T20:11:36.687Z,100386.97
2023-01-10T20:14:09.951Z,100385.88
2023-01-10T20:16:36.527Z,100383.97
2023-01-10T20:19:05.492Z,100392.06
2023-01-10T20:21:32.061Z,100394.00
2023-01-10T20:23:58.641Z,100398.47
2023-01-10T20:26:30.446Z,100388.88
2023-01-10T20:29:01.973Z,100409.38
2023-01-10T20:31:29.251Z,100411.84
2023-01-10T20:33:56.021Z,100400.94
2023-01-10T20:36:24.056Z,100408.09
2023-01-10T20:38:51.878Z,100422.44
2023-01-10T20:41:29.931Z,100412.69
2023-01-10T20:43:57.477Z,100411.97
2023-01-10T20:46:26.785Z,100421.13
2023-01-10T20:48:55.420Z,100416.75
2023-01-10T20:51:24.585Z,100414.28
2023-01-10T20:53:51.812Z,100415.25
2023-01-10T20:56:26.461Z,100418.78
2023-01-10T20:58:53.298Z,100422.00
2023-01-10T21:01:33.190Z,100421.13
2023-01-10T21:04:01.694Z,100428.41
2023-01-10T21:06:28.388Z,100409.81
2023-01-10T21:08:55.180Z,100410.34
2023-01-10T21:11:21.850Z,100398.72
2023-01-10T21:13:48.537Z,100414.72
2023-01-10T21:16:18.226Z,100426.28
2023-01-10T21:18:45.014Z,100419.34
2023-01-10T21:21:18.106Z,100418.66
2023-01-10T21:23:44.732Z,100417.94
2023-01-10T21:26:13.857Z,100422.53
2023-01-10T21:28:43.308Z,100413.66
2023-01-10T21:31:10.822Z,100418.88
2023-01-10T21:33:38.074Z,100416.97
2023-01-10T21:36:05.798Z,100421.56
2023-01-10T21:38:33.558Z,100417.09
2023-01-10T21:41:11.559Z,100421.34
2023-01-10T21:43:38.783Z,100417.09
2023-01-10T21:46:05.576Z,100412.59
2023-01-10T21:48:32.192Z,100424.00
2023-01-10T21:50:59.281Z,100429.34
2023-01-10T21:53:26.091Z,100408.84
2023-01-10T21:55:52.736Z,100418.78
2023-01-10T21:58:19.387Z,100425.09
2023-01-10T22:00:45.972Z,100415.25
2023-01-10T22:03:12.588Z,100407.97
2023-01-10T22:05:39.151Z,100413.53
2023-01-10T22:08:05.736Z,100416.31
2023-01-10T22:10:32.306Z,100412.91
2023-01-10T22:12:58.925Z,100410.44
2023-01-10T22:15:27.059Z,100416.00
2023-01-10T22:17:53.669Z,100424.00
2023-01-10T22:20:20.213Z,100420.88
2023-01-10T22:22:46.817Z,100422.81
2023-01-10T22:25:13.418Z,100427.09
2023-01-10T22:27:44.127Z,100426.22
2023-01-10T22:30:11.937Z,100421.34
2023-01-10T22:32:38.573Z,100424.28
2023-01-10T22:35:05.427Z,100429.00
2023-01-10T22:37:32.065Z,100424.59
2023-01-10T22:40:00.673Z,100442.00
2023-01-10T22:42:27.312Z,100412.75
2023-01-10T22:44:53.908Z,100425.53
2023-01-10T22:47:20.472Z,100433.53
2023-01-10T22:49:47.083Z,100433.94
2023-01-10T22:52:13.647Z,100429.16
2023-01-10T22:54:40.246Z,100429.56
2023-01-10T22:57:06.856Z,100440.66
2023-01-10T22:59:34.743Z,100438.19
2023-01-10T23:02:01.412Z,100437.00
2023-01-10T23:04:28.009Z,100435.09
2023-01-10T23:06:56.624Z,100446.94
2023-01-10T23:09:23.266Z,100458.00
2023-01-10T23:11:49.822Z,100447.72
2023-01-10T23:14:16.380Z,100453.91
2023-01-10T23:16:42.988Z,100456.78
2023-01-10T23:19:09.582Z,100459.16
2023-01-10T23:21:36.126Z,100452.31
2023-01-10T23:24:02.736Z,100457.19
2023-01-10T23:26:29.284Z,100454.31
2023-01-10T23:28:55.829Z,100466.41
2023-01-10T23:31:24.050Z,100457.00
2023-01-10T23:33:51.241Z,100459.28
2023-01-10T23:36:18.479Z,100447.84
2023-01-10T23:38:45.326Z,100450.81
2023-01-10T23:41:11.985Z,100447.69
2023-01-10T23:43:38.797Z,100453.47
2023-01-10T23:46:07.049Z,100456.22
2023-01-10T23:48:33.737Z,100452.81
2023-01-10T23:51:00.746Z,100450.03
2023-01-10T23:53:27.830Z,100460.22
2023-01-10T23:55:54.597Z,100451.16
2023-01-10T23:58:23.836Z,100449.63
